Williamson, Iowa
Current Conditions -  °F | °C
As of 8:15 PM on Wednesday 22 Oct 2014 (Local Time) from KCNC Reporting Station
Overcast Overcast  
Wind Chill: 14°   Ceiling: 5000
Heat Index: 14°   Visibility: 10mi
Dew Point:   Wind: 12mph
Humidity: 63%   Direction: 140°SE
Pressure: 30.14"   Gusts: 17mph
Location:  41.09°N, 93.25°W
Report Text: KCNC 230115Z AUTO 14010G15KT 10SM BKN050 OVC060 14/07 A3014 RMK AO2
Loading
Personal Weather Stations






























Interactive Weather Map
Tropical Storm Tracking
New forecast layout! Learn more

10-Day Weather Forecast

Advertisements
Track Severe Weather on mobile